Home PIREPS Pireps

Flight SAB5181

  • Submitted By: Carl Hermans
  • Departure Airport: Deurne (EBAW)
  • Arrival Airport: airoport Geneve-Cointrin (LSGG)
  • Aircraft: B737-500 (OO-SAB)
  • Flight Time: 01.32
  • Date Submitted: 18/10/2015
  • Status: Accepted
Flight Details
Gross Revenue:
(131 load / € 0.00 per unit
€ 0.00
Fuel Cost:
(3748 fuel used @ 5.1 / unit)
€ 19,114.80

Additional Log Information:

View Log

Aircraft Used in flight is B737-800 Jetair
16:21 Strobe Lights ON at 50 AGL
16:21 Navigation Lights ON at 50 AGL
16:21 Brakes are On
16:32Flaps 3 Selected at 50ft and 0kts
16:33 Taxi Lights ON at 50 AGL
16:33 Strobe Lights OFF at 50 AGL
16:34 Beacon Lights ON at 50 AGL
16:36 Engine 2 Started
16:37 Engine 1 Started
16:39 Brakes are Released
16:43 Taxi Lights OFF at 50 AGL
16:44 You Took off @ 168 Knots and Flaps at Position 3
Departure Weather
EBAW 181420Z 32004KT 290V010 9999 BKN040 12/05 Q1019 NOSIGrn
16:44 Landing Gear Up @ 178 Knots and 140 Feet
16:45Flaps Retracted at 1330ft and 199kts
17:10 Overspeed
17:11 Recovered from Overspeed
17:11 Overspeed
17:11 Recovered from Overspeed
17:21 Overspeed
17:21 Recovered from Overspeed
17:23 Overspeed
17:24 Recovered from Overspeed
17:28 Below 10000 feet you are not allowed to go over 250 knots
17:34Flaps 1 Selected at 7020ft and 209kts
17:38Flaps 2 Selected at 6710ft and 192kts
17:38Flaps 3 Selected at 6690ft and 192kts
17:42Flaps 4 Selected at 5280ft and 198kts
17:44Flaps 5 Selected at 5290ft and 171kts
17:44 Landing Gear Down @ 171 Knots and 4400 Feet
17:45Flaps 6 Selected at 3690ft and 153kts
17:46Flaps 7 Selected at 2900ft and 144kts
17:46Flaps 8 Selected at 2670ft and 144kts
17:48 You Landed @ 122 Knots and with -100 Vertical Speed
Arrival Weather
LSGG 181520Z 04005KT 020V080 9999 FEW030 BKN045 12/07 Q1015 NOSIGrn
17:49Flaps Retracted at 1420ft and 11kts
17:50 Taxi Lights ON at 1420 AGL
17:52 Brakes are On
17:52 Engine 1 Stoped
17:52 Engine 2 Stoped
17:52 Taxi Lights OFF at 1420 AGL
17:52 Navigation Lights OFF at 1420 AGL
17:52 Beacon Lights OFF at 1420 AGL
17:53 Brussels Bel-Track1.0.0.11

Route Map

Corporate About Us Our Team Vacancies Information Fleet Route Network Rules and Regulations Operations Flight Schedules Event Center Tours Partners IVAO Vatsim Acars dev FSCB

fb Users Online Belgium Serge Van Laethem, Belgium Roger Wijns, United Kingdom David Chenery,
3 Pilot(s) and 239 Guest(s) Online
CMS by phpVMS - Design by Crazycreatives.com - Copyright © 2018 - Brussels Airlines Virtual